createdAt,value
2022-09-14T00:00:23.698Z,36.03
2022-09-14T00:05:26.078Z,35.40
2022-09-14T00:10:28.661Z,34.97
2022-09-14T00:15:30.955Z,35.00
2022-09-14T00:20:33.898Z,34.33
2022-09-14T00:25:36.176Z,33.23
2022-09-14T00:30:42.263Z,36.20
2022-09-14T00:35:44.591Z,35.03
2022-09-14T00:40:57.171Z,37.90
2022-09-14T00:46:02.747Z,30.67
2022-09-14T00:51:05.239Z,35.30
2022-09-14T00:56:07.767Z,32.37
2022-09-14T01:01:10.426Z,39.60
2022-09-14T01:06:36.442Z,36.33
2022-09-14T01:11:51.926Z,36.83
2022-09-14T01:17:12.672Z,40.80
2022-09-14T01:22:21.190Z,41.33
2022-09-14T01:27:34.824Z,36.97
2022-09-14T01:32:43.102Z,41.63
2022-09-14T01:38:07.735Z,38.17
2022-09-14T01:43:15.171Z,37.03
2022-09-14T01:48:27.203Z,35.63
2022-09-14T01:53:43.739Z,35.87
2022-09-14T01:59:14.175Z,34.37
2022-09-14T02:04:26.318Z,34.33
2022-09-14T02:09:29.207Z,36.13
2022-09-14T02:14:31.907Z,30.37
2022-09-14T02:19:46.970Z,33.10
2022-09-14T02:24:50.929Z,34.37
2022-09-14T02:29:53.848Z,31.13
2022-09-14T02:35:23.523Z,39.83
2022-09-14T02:40:37.279Z,33.70
2022-09-14T02:46:03.119Z,30.77
2022-09-14T02:51:12.312Z,30.27
2022-09-14T02:56:16.822Z,23.80
2022-09-14T03:01:22.490Z,27.63
2022-09-14T03:06:24.938Z,27.83
2022-09-14T03:11:27.287Z,26.03
2022-09-14T03:16:29.894Z,25.43
2022-09-14T03:21:33.046Z,18.63
2022-09-14T03:26:38.247Z,22.83
2022-09-14T03:31:40.671Z,19.50
2022-09-14T03:36:43.030Z,20.67
2022-09-14T03:41:45.430Z,15.50
2022-09-14T03:46:47.880Z,15.07
2022-09-14T03:51:50.643Z,14.50
2022-09-14T03:56:54.012Z,18.33
2022-09-14T04:01:56.642Z,17.83
2022-09-14T04:06:59.094Z,16.17
2022-09-14T04:12:01.481Z,20.73
2022-09-14T04:17:04.363Z,21.10
2022-09-14T04:22:06.901Z,16.13
2022-09-14T04:27:09.272Z,15.47
2022-09-14T04:32:11.836Z,17.57
2022-09-14T04:37:14.260Z,12.83
2022-09-14T04:42:17.007Z,15.33
2022-09-14T05:05:09.109Z,10.67
2022-09-14T05:28:35.788Z,13.07
2022-09-14T06:13:51.266Z,12.97
2022-09-14T06:25:09.206Z,8.57
2022-09-14T06:30:17.499Z,11.87
2022-09-14T07:18:00.117Z,6.10
2022-09-14T07:36:43.640Z,8.70
2022-09-14T08:08:49.468Z,9.17
2022-09-14T08:14:13.029Z,10.27
2022-09-14T08:19:20.445Z,14.83
2022-09-14T08:24:22.793Z,8.73
2022-09-14T08:29:25.079Z,11.60
2022-09-14T08:34:27.514Z,12.73
2022-09-14T08:39:30.076Z,9.57
2022-09-14T08:44:41.708Z,5.07
2022-09-14T08:49:52.171Z,8.43
2022-09-14T08:54:58.785Z,11.47
2022-09-14T09:00:01.097Z,6.57
2022-09-14T09:05:22.009Z,4.77
2022-09-14T09:10:26.910Z,6.07
2022-09-14T09:15:39.206Z,6.80
2022-09-14T09:20:48.033Z,8.70
2022-09-14T09:25:53.356Z,6.13
2022-09-14T09:31:04.889Z,6.33
2022-09-14T09:36:34.972Z,8.57
2022-09-14T09:41:45.086Z,4.17
2022-09-14T09:46:55.518Z,4.90
2022-09-14T09:52:11.609Z,4.27
2022-09-14T09:57:27.302Z,4.30
2022-09-14T10:02:31.944Z,4.60
2022-09-14T10:07:39.373Z,5.77
2022-09-14T10:12:54.225Z,5.50
2022-09-14T10:18:11.563Z,3.83
2022-09-14T10:23:19.861Z,4.80
2022-09-14T10:28:24.127Z,5.03
2022-09-14T10:33:26.974Z,7.47
2022-09-14T10:38:42.619Z,6.83
2022-09-14T10:44:09.706Z,8.00
2022-09-14T10:49:24.135Z,7.77
2022-09-14T10:55:00.697Z,9.83
2022-09-14T11:00:12.477Z,5.60
2022-09-14T11:05:38.535Z,5.13
2022-09-14T11:10:45.315Z,4.37
2022-09-14T11:16:22.325Z,4.60
2022-09-14T11:21:52.472Z,3.27
2022-09-14T11:51:34.583Z,8.90
2022-09-14T14:58:47.615Z,3.53
2022-09-14T15:03:50.324Z,4.53
2022-09-14T15:08:54.902Z,7.33
2022-09-14T15:13:57.637Z,4.63
2022-09-14T15:18:59.982Z,4.37
2022-09-14T15:24:02.735Z,4.10
2022-09-14T15:29:05.682Z,6.43
2022-09-14T15:34:08.117Z,3.10
2022-09-14T15:39:13.685Z,7.40
2022-09-14T15:44:17.197Z,6.97
2022-09-14T15:49:24.581Z,7.87
2022-09-14T15:54:32.494Z,8.40
2022-09-14T15:59:35.095Z,3.83
2022-09-14T16:04:38.571Z,5.83
2022-09-14T16:09:41.855Z,4.37
2022-09-14T16:14:44.289Z,6.03
2022-09-14T16:19:49.210Z,6.67
2022-09-14T16:24:51.941Z,5.63
2022-09-14T16:29:54.321Z,5.80
2022-09-14T16:34:56.979Z,4.13
2022-09-14T16:39:59.840Z,9.30
2022-09-14T16:45:02.352Z,11.17
2022-09-14T16:50:05.488Z,11.07
2022-09-14T16:55:08.157Z,5.00
2022-09-14T17:00:11.086Z,10.93
2022-09-14T17:05:13.983Z,9.70
2022-09-14T17:10:16.448Z,6.90
2022-09-14T17:15:18.845Z,6.00
2022-09-14T17:20:21.255Z,7.77
2022-09-14T17:25:25.253Z,6.47
2022-09-14T17:30:27.618Z,6.00
2022-09-14T17:35:30.127Z,8.50
2022-09-14T17:40:34.002Z,7.60
2022-09-14T17:45:36.714Z,5.53
2022-09-14T17:50:39.640Z,6.20
2022-09-14T17:55:42.583Z,8.87
2022-09-14T18:00:45.991Z,7.63
2022-09-14T18:05:54.749Z,7.67
2022-09-14T18:10:57.258Z,6.73
2022-09-14T18:16:00.073Z,6.23
2022-09-14T18:21:02.736Z,8.07
2022-09-14T18:26:08.166Z,8.93
2022-09-14T18:31:12.815Z,7.40
2022-09-14T18:36:15.337Z,9.63
2022-09-14T18:41:17.953Z,9.97
2022-09-14T18:46:24.493Z,8.73
2022-09-14T18:51:31.430Z,8.43
2022-09-14T18:56:35.121Z,7.00
2022-09-14T19:01:38.058Z,8.10
2022-09-14T19:06:41.758Z,8.57
2022-09-14T19:11:45.121Z,8.63
2022-09-14T19:16:47.757Z,12.83
2022-09-14T19:21:50.153Z,8.83
2022-09-14T19:26:53.138Z,9.97
2022-09-14T19:31:55.926Z,11.83
2022-09-14T19:36:58.320Z,16.10
2022-09-14T19:42:00.703Z,19.03
2022-09-14T19:47:03.449Z,15.63
2022-09-14T19:52:05.838Z,16.10
2022-09-14T19:57:08.305Z,13.53
2022-09-14T20:02:11.628Z,11.97
2022-09-14T20:07:14.123Z,10.77
2022-09-14T20:12:16.456Z,13.67
2022-09-14T20:17:19.115Z,15.17
2022-09-14T20:22:21.457Z,12.53
2022-09-14T20:27:24.196Z,12.87
2022-09-14T20:32:26.560Z,23.60
2022-09-14T20:37:29.160Z,27.40
2022-09-14T20:42:31.601Z,41.17
2022-09-14T20:47:33.995Z,25.53
2022-09-14T20:52:36.940Z,25.63
2022-09-14T20:57:39.314Z,30.37
2022-09-14T21:02:41.849Z,43.33
2022-09-14T21:07:54.115Z,44.60
2022-09-14T21:12:58.608Z,35.60
2022-09-14T21:18:01.783Z,32.03
2022-09-14T21:23:04.854Z,37.53
2022-09-14T21:28:07.572Z,34.73
2022-09-14T21:33:09.923Z,29.37
2022-09-14T21:38:12.286Z,33.33
2022-09-14T21:43:14.863Z,28.43
2022-09-14T21:48:17.575Z,27.97
2022-09-14T21:53:20.146Z,23.53
2022-09-14T21:58:22.636Z,23.43
2022-09-14T22:03:25.632Z,18.97
2022-09-14T22:08:29.852Z,14.60
2022-09-14T22:13:32.670Z,16.33
2022-09-14T22:18:36.878Z,14.77
2022-09-14T22:23:39.249Z,11.37
2022-09-14T22:28:41.824Z,13.00
2022-09-14T22:33:44.922Z,7.87
2022-09-14T22:38:48.199Z,8.80
2022-09-14T22:43:50.586Z,9.07
2022-09-14T22:48:53.659Z,8.33
2022-09-14T22:53:56.774Z,12.60
2022-09-14T22:59:01.591Z,11.90
2022-09-14T23:04:06.924Z,8.77
2022-09-14T23:09:11.772Z,9.47
2022-09-14T23:14:15.577Z,9.87
2022-09-14T23:19:18.870Z,12.67
2022-09-14T23:24:21.356Z,11.13
2022-09-14T23:29:23.941Z,5.50
2022-09-14T23:34:26.384Z,7.53
2022-09-14T23:39:28.962Z,10.23
2022-09-14T23:44:31.562Z,9.87
2022-09-14T23:49:33.941Z,7.10
2022-09-14T23:54:36.290Z,6.57
2022-09-14T23:59:38.728Z,8.27
